< Cyclone 201407 2014 Season Cyclone 201409 >
Cyclone 201408 (Fletcher)
General InformationDetailed Track InformationTrack Information on Google MapsList of All Images || ResourceGoogle EarthGE AnimationAtom FeedGeoJSON
Detalied Best Track Wind (Time Zone = UTC)
Year Month Day Hour Lat. Long. Wind (kt) Gust (kt) Direc. of Major Storm Axis Radius of Major Storm Axis (nm) Radius of Minor Storm Axis (nm) Direc. of Major Gale Axis Radius of Major Gale Axis (nm) Radius of Minor Gale Axis (nm) Image
2014 1 30 00 -13.5 129.3 0 -1 symmetric - - symmetric - - Image
2014 1 30 06 -13.9 129.5 0 -1 symmetric - - symmetric - - Image
2014 1 30 12 -13.7 129.7 0 -1 symmetric - - symmetric - - Image
2014 1 30 18 -13.7 129.7 0 -1 symmetric - - symmetric - - Image
2014 1 31 00 -13.6 129.3 0 -1 symmetric - - symmetric - - Image
2014 1 31 06 -13.9 129.3 0 -1 symmetric - - symmetric - - Image
2014 1 31 12 -13.9 129.9 0 -1 symmetric - - symmetric - - Image
2014 1 31 18 -14.0 131.1 0 -1 symmetric - - symmetric - - Image
2014 2 1 00 -14.4 132.0 0 -1 symmetric - - symmetric - - Image
2014 2 1 03 -14.7 132.5 0 -1 symmetric - - symmetric - - Image
2014 2 1 06 -14.9 133.1 0 -1 symmetric - - symmetric - - Image
2014 2 1 12 -15.8 133.8 0 -1 symmetric - - symmetric - - Image
2014 2 1 18 -16.2 134.8 0 -1 symmetric - - symmetric - - Image
2014 2 1 21 -16.3 135.2 0 -1 symmetric - - symmetric - - Image
2014 2 2 00 -16.4 135.7 15 45 symmetric - - symmetric - - Image
2014 2 2 03 -16.3 136.2 20 40 symmetric - - symmetric - - Image
2014 2 2 06 -16.3 136.9 25 45 symmetric - - symmetric - - Image
2014 2 2 12 -17.2 138.4 25 45 symmetric - - symmetric - - Image
2014 2 2 15 -17.1 139.3 25 45 symmetric - - symmetric - - Image
2014 2 2 18 -17.5 139.4 25 45 symmetric - - symmetric - - Image
2014 2 2 21 -17.3 139.7 30 45 symmetric - - symmetric - - Image
2014 2 2 22 -17.4 139.9 30 -1 symmetric - - symmetric - - Image
2014 2 2 23 -17.3 140.0 30 -1 symmetric - - symmetric - - Image
2014 2 3 00 -17.2 140.1 30 45 symmetric - - symmetric - - Image
2014 2 3 01 -17.1 140.3 31.6667 -1 symmetric - - symmetric - - Image
2014 2 3 02 -17.0 140.5 33.3333 -1 symmetric - - symmetric - - Image
2014 2 3 03 -17.0 140.7 35 50 symmetric - - symmetric - - Image
2014 2 3 04 -17.0 140.8 35 -1 symmetric - - symmetric - - Image
2014 2 3 05 -17.0 140.9 35 50 symmetric - - symmetric - - Image
2014 2 3 06 -17.0 140.9 30 45 symmetric - - symmetric - - Image
2014 2 3 07 -16.9 140.9 35 50 symmetric - - symmetric - - Image
2014 2 3 08 -16.8 141.0 35 50 symmetric - - symmetric - - Image
2014 2 3 09 -16.9 141.2 30 45 symmetric - - symmetric - - Image
2014 2 3 12 -16.4 141.2 30 45 symmetric - - symmetric - - Image
2014 2 3 15 -16.7 141.3 30 45 symmetric - - symmetric - - Image
2014 2 3 18 -16.3 141.4 30 45 symmetric - - symmetric - - Image
2014 2 3 21 -16.4 141.4 30 45 symmetric - - symmetric - - Image
2014 2 4 00 -16.7 141.4 30 45 symmetric - - symmetric - - Image
2014 2 4 03 -16.8 141.3 30 45 symmetric - - symmetric - - Image
2014 2 4 06 -16.8 141.2 30 45 symmetric - - symmetric - - Image
2014 2 4 09 -16.7 141.2 30 45 symmetric - - symmetric - - Image
2014 2 4 12 -16.6 141.2 30 45 symmetric - - symmetric - - Image
2014 2 4 15 -16.6 141.1 30 45 symmetric - - symmetric - - Image
2014 2 4 18 -16.6 141.0 30 45 symmetric - - symmetric - - Image
2014 2 4 21 -16.7 140.8 30 45 symmetric - - symmetric - - Image
2014 2 5 00 -16.8 140.9 25 45 symmetric - - symmetric - - Image
2014 2 5 03 -16.9 141.0 25 45 symmetric - - symmetric - - Image
2014 2 5 06 -17.1 140.9 20 40 symmetric - - symmetric - - Image
2014 2 6 12 -16.8 140.8 20 40 symmetric - - symmetric - - Image
2014 2 7 00 -16.6 140.7 20.625 -1 symmetric - - symmetric - - Image
2014 2 7 03 -16.5 140.8 21.25 -1 symmetric - - symmetric - - Image
2014 2 7 06 -16.3 140.7 21.875 -1 symmetric - - symmetric - - Image
2014 2 7 12 -16.0 141.4 22.5 -1 symmetric - - symmetric - - Image
2014 2 7 18 -15.9 141.7 23.125 -1 symmetric - - symmetric - - Image
2014 2 8 00 -16.2 141.3 23.75 -1 symmetric - - symmetric - - Image
2014 2 8 06 -16.5 140.9 24.375 -1 symmetric - - symmetric - - Image
2014 2 8 09 -16.5 141.0 25 40 symmetric - - symmetric - - Image
2014 2 8 15 -16.8 140.7 25 40 symmetric - - symmetric - - Image
2014 2 8 18 -17.4 140.5 30 45 symmetric - - symmetric - - Image
2014 2 9 00 -17.6 139.8 0 -1 symmetric - - symmetric - - Image
2014 2 9 06 -17.7 139.3 0 -1 symmetric - - symmetric - - Image
2014 2 9 09 -17.6 139.2 0 -1 symmetric - - symmetric - - Image
2014 2 9 12 -17.3 138.8 0 -1 symmetric - - symmetric - - Image
2014 2 9 15 -17.1 138.6 0 -1 symmetric - - symmetric - - Image
2014 2 9 18 -17.1 138.2 0 -1 symmetric - - symmetric - - Image
2014 2 9 23 -17.2 137.8 0 -1 symmetric - - symmetric - - Image
2014 2 10 12 -17.4 135.9 0 -1 symmetric - - symmetric - - Image
2014 2 11 00 -18.3 134.2 0 -1 symmetric - - symmetric - - Image
2014 2 11 12 -19.2 132.9 0 -1 symmetric - - symmetric - - Image
2014 2 12 00 -21.2 131.0 0 -1 symmetric - - symmetric - - Image
< Cyclone 201407 2014 Season Cyclone 201409 >

Help